sensor_id;sensor_type;location;lat;lon;timestamp;P1;durP1;ratioP1;P2;durP2;ratioP2
66581;SDS011;53438;48.898;2.308;2023-04-29T03:01:33;6.22;;;5.00;;
66581;SDS011;53438;48.898;2.308;2023-04-29T03:03:59;6.53;;;4.70;;
66581;SDS011;53438;48.898;2.308;2023-04-29T03:06:25;6.17;;;5.17;;
66581;SDS011;53438;48.898;2.308;2023-04-29T03:08:51;8.40;;;4.65;;
66581;SDS011;53438;48.898;2.308;2023-04-29T03:11:17;6.70;;;4.80;;
66581;SDS011;53438;48.898;2.308;2023-04-29T03:13:43;8.57;;;4.20;;
66581;SDS011;53438;48.898;2.308;2023-04-29T03:16:09;6.80;;;4.35;;
66581;SDS011;53438;48.898;2.308;2023-04-29T03:18:37;5.63;;;4.47;;
66581;SDS011;53438;48.898;2.308;2023-04-29T03:21:03;8.07;;;4.70;;
66581;SDS011;53438;48.898;2.308;2023-04-29T03:23:28;8.57;;;5.33;;
66581;SDS011;53438;48.898;2.308;2023-04-29T03:25:54;6.70;;;4.93;;
66581;SDS011;53438;48.898;2.308;2023-04-29T03:28:19;8.25;;;5.28;;
66581;SDS011;53438;48.898;2.308;2023-04-29T03:30:45;7.67;;;5.77;;
66581;SDS011;53438;48.898;2.308;2023-04-29T03:33:10;7.77;;;5.80;;
66581;SDS011;53438;48.898;2.308;2023-04-29T03:35:35;8.10;;;5.23;;
66581;SDS011;53438;48.898;2.308;2023-04-29T03:38:01;6.53;;;5.07;;
66581;SDS011;53438;48.898;2.308;2023-04-29T03:40:26;8.47;;;5.77;;
66581;SDS011;53438;48.898;2.308;2023-04-29T03:42:51;10.77;;;5.30;;
66581;SDS011;53438;48.898;2.308;2023-04-29T03:45:17;8.73;;;4.80;;
66581;SDS011;53438;48.898;2.308;2023-04-29T03:47:42;7.82;;;5.22;;
66581;SDS011;53438;48.898;2.308;2023-04-29T03:50:08;10.30;;;5.23;;
66581;SDS011;53438;48.898;2.308;2023-04-29T03:52:33;9.40;;;5.13;;
66581;SDS011;53438;48.898;2.308;2023-04-29T03:55:02;6.63;;;4.63;;
66581;SDS011;53438;48.898;2.308;2023-04-29T03:57:28;6.25;;;4.50;;
66581;SDS011;53438;48.898;2.308;2023-04-29T03:59:53;9.93;;;6.07;;
66581;SDS011;53438;48.898;2.308;2023-04-29T04:02:18;9.77;;;4.87;;
66581;SDS011;53438;48.898;2.308;2023-04-29T04:04:44;7.90;;;5.60;;
66581;SDS011;53438;48.898;2.308;2023-04-29T04:07:10;8.88;;;4.88;;
66581;SDS011;53438;48.898;2.308;2023-04-29T04:09:36;7.47;;;4.63;;
66581;SDS011;53438;48.898;2.308;2023-04-29T04:12:02;6.97;;;4.80;;
66581;SDS011;53438;48.898;2.308;2023-04-29T04:14:27;6.63;;;4.90;;
66581;SDS011;53438;48.898;2.308;2023-04-29T04:16:52;6.30;;;4.67;;
66581;SDS011;53438;48.898;2.308;2023-04-29T04:19:18;6.88;;;5.25;;
66581;SDS011;53438;48.898;2.308;2023-04-29T04:21:44;11.07;;;5.07;;
66581;SDS011;53438;48.898;2.308;2023-04-29T04:24:09;7.80;;;5.57;;
66581;SDS011;53438;48.898;2.308;2023-04-29T04:26:34;7.63;;;5.60;;
66581;SDS011;53438;48.898;2.308;2023-04-29T04:29:00;8.10;;;5.40;;
66581;SDS011;53438;48.898;2.308;2023-04-29T04:31:25;8.30;;;5.05;;
66581;SDS011;53438;48.898;2.308;2023-04-29T04:33:50;8.25;;;5.47;;
66581;SDS011;53438;48.898;2.308;2023-04-29T04:36:16;9.50;;;6.43;;
66581;SDS011;53438;48.898;2.308;2023-04-29T04:38:41;9.47;;;6.53;;
66581;SDS011;53438;48.898;2.308;2023-04-29T04:41:06;9.47;;;6.87;;
66581;SDS011;53438;48.898;2.308;2023-04-29T04:43:32;12.40;;;6.93;;
66581;SDS011;53438;48.898;2.308;2023-04-29T04:45:57;10.25;;;6.50;;
66581;SDS011;53438;48.898;2.308;2023-04-29T04:48:23;9.48;;;6.68;;
66581;SDS011;53438;48.898;2.308;2023-04-29T04:50:48;12.67;;;6.23;;
66581;SDS011;53438;48.898;2.308;2023-04-29T04:53:13;12.17;;;6.87;;
66581;SDS011;53438;48.898;2.308;2023-04-29T04:55:39;8.70;;;5.73;;
66581;SDS011;53438;48.898;2.308;2023-04-29T04:58:04;12.17;;;6.87;;
66581;SDS011;53438;48.898;2.308;2023-04-29T05:00:30;11.47;;;7.10;;
66581;SDS011;53438;48.898;2.308;2023-04-29T05:02:55;12.07;;;8.37;;
66581;SDS011;53438;48.898;2.308;2023-04-29T05:05:20;10.23;;;6.73;;
66581;SDS011;53438;48.898;2.308;2023-04-29T05:07:46;13.60;;;7.93;;
66581;SDS011;53438;48.898;2.308;2023-04-29T05:10:11;13.53;;;8.23;;
66581;SDS011;53438;48.898;2.308;2023-04-29T05:12:36;15.30;;;7.00;;
66581;SDS011;53438;48.898;2.308;2023-04-29T05:15:02;15.00;;;8.80;;
66581;SDS011;53438;48.898;2.308;2023-04-29T05:17:30;9.98;;;7.25;;
66581;SDS011;53438;48.898;2.308;2023-04-29T05:19:55;12.10;;;6.70;;
66581;SDS011;53438;48.898;2.308;2023-04-29T05:22:21;12.57;;;7.17;;
66581;SDS011;53438;48.898;2.308;2023-04-29T05:24:46;11.07;;;6.45;;
66581;SDS011;53438;48.898;2.308;2023-04-29T05:27:16;11.18;;;6.60;;
66581;SDS011;53438;48.898;2.308;2023-04-29T05:29:42;11.18;;;7.00;;
66581;SDS011;53438;48.898;2.308;2023-04-29T05:32:08;12.45;;;6.82;;
66581;SDS011;53438;48.898;2.308;2023-04-29T05:34:33;12.48;;;7.90;;
66581;SDS011;53438;48.898;2.308;2023-04-29T05:36:59;14.23;;;7.77;;
66581;SDS011;53438;48.898;2.308;2023-04-29T05:39:24;12.47;;;6.90;;
66581;SDS011;53438;48.898;2.308;2023-04-29T05:41:50;14.23;;;7.25;;
66581;SDS011;53438;48.898;2.308;2023-04-29T05:44:16;13.20;;;6.90;;
66581;SDS011;53438;48.898;2.308;2023-04-29T05:46:41;14.17;;;7.57;;
66581;SDS011;53438;48.898;2.308;2023-04-29T05:49:06;15.40;;;7.53;;
66581;SDS011;53438;48.898;2.308;2023-04-29T05:51:33;13.18;;;6.85;;
66581;SDS011;53438;48.898;2.308;2023-04-29T05:53:58;14.70;;;7.43;;
66581;SDS011;53438;48.898;2.308;2023-04-29T05:56:24;16.20;;;8.00;;
66581;SDS011;53438;48.898;2.308;2023-04-29T05:58:49;16.97;;;9.27;;
66581;SDS011;53438;48.898;2.308;2023-04-29T06:01:15;19.02;;;9.13;;
66581;SDS011;53438;48.898;2.308;2023-04-29T06:03:42;17.58;;;9.23;;
66581;SDS011;53438;48.898;2.308;2023-04-29T06:06:08;17.75;;;8.95;;
66581;SDS011;53438;48.898;2.308;2023-04-29T06:08:33;15.80;;;8.25;;
66581;SDS011;53438;48.898;2.308;2023-04-29T06:10:59;18.43;;;10.33;;
66581;SDS011;53438;48.898;2.308;2023-04-29T06:13:24;22.47;;;10.43;;
66581;SDS011;53438;48.898;2.308;2023-04-29T06:15:50;19.25;;;8.95;;
66581;SDS011;53438;48.898;2.308;2023-04-29T06:18:15;19.90;;;8.80;;
66581;SDS011;53438;48.898;2.308;2023-04-29T06:20:41;19.50;;;8.97;;
66581;SDS011;53438;48.898;2.308;2023-04-29T06:23:06;21.10;;;9.63;;
66581;SDS011;53438;48.898;2.308;2023-04-29T06:25:32;20.15;;;9.32;;
66581;SDS011;53438;48.898;2.308;2023-04-29T06:27:58;42.97;;;19.23;;
66581;SDS011;53438;48.898;2.308;2023-04-29T06:30:23;33.88;;;14.40;;
66581;SDS011;53438;48.898;2.308;2023-04-29T06:32:48;35.77;;;15.83;;
66581;SDS011;53438;48.898;2.308;2023-04-29T06:35:14;22.23;;;11.27;;
66581;SDS011;53438;48.898;2.308;2023-04-29T06:37:39;22.83;;;9.97;;
66581;SDS011;53438;48.898;2.308;2023-04-29T06:40:05;22.83;;;10.63;;
66581;SDS011;53438;48.898;2.308;2023-04-29T06:42:31;24.92;;;11.38;;
66581;SDS011;53438;48.898;2.308;2023-04-29T06:44:56;21.60;;;10.60;;
66581;SDS011;53438;48.898;2.308;2023-04-29T06:47:21;22.97;;;11.23;;
66581;SDS011;53438;48.898;2.308;2023-04-29T06:49:47;22.13;;;10.17;;
66581;SDS011;53438;48.898;2.308;2023-04-29T06:52:12;20.60;;;10.00;;
66581;SDS011;53438;48.898;2.308;2023-04-29T06:54:38;27.42;;;10.65;;
66581;SDS011;53438;48.898;2.308;2023-04-29T06:57:04;26.20;;;11.90;;
66581;SDS011;53438;48.898;2.308;2023-04-29T06:59:30;28.07;;;11.97;;
66581;SDS011;53438;48.898;2.308;2023-04-29T07:01:56;29.35;;;13.20;;
66581;SDS011;53438;48.898;2.308;2023-04-29T07:04:22;27.37;;;12.57;;
66581;SDS011;53438;48.898;2.308;2023-04-29T07:06:47;24.47;;;11.83;;
66581;SDS011;53438;48.898;2.308;2023-04-29T07:09:13;25.30;;;12.50;;
66581;SDS011;53438;48.898;2.308;2023-04-29T07:11:38;27.55;;;12.90;;
66581;SDS011;53438;48.898;2.308;2023-04-29T07:14:04;27.08;;;13.63;;
66581;SDS011;53438;48.898;2.308;2023-04-29T07:16:31;31.38;;;14.55;;
66581;SDS011;53438;48.898;2.308;2023-04-29T07:18:57;29.10;;;14.23;;
66581;SDS011;53438;48.898;2.308;2023-04-29T07:21:22;33.90;;;16.50;;
66581;SDS011;53438;48.898;2.308;2023-04-29T07:23:47;33.55;;;15.75;;
66581;SDS011;53438;48.898;2.308;2023-04-29T07:26:13;36.67;;;16.40;;
66581;SDS011;53438;48.898;2.308;2023-04-29T07:28:42;30.77;;;14.23;;
66581;SDS011;53438;48.898;2.308;2023-04-29T07:31:08;37.83;;;16.75;;
66581;SDS011;53438;48.898;2.308;2023-04-29T07:33:34;36.67;;;16.00;;
66581;SDS011;53438;48.898;2.308;2023-04-29T07:36:00;34.97;;;16.40;;
66581;SDS011;53438;48.898;2.308;2023-04-29T07:38:28;32.42;;;15.18;;
66581;SDS011;53438;48.898;2.308;2023-04-29T07:40:54;31.25;;;14.50;;
66581;SDS011;53438;48.898;2.308;2023-04-29T07:43:20;30.87;;;13.70;;
66581;SDS011;53438;48.898;2.308;2023-04-29T07:45:45;27.97;;;13.60;;
66581;SDS011;53438;48.898;2.308;2023-04-29T07:48:12;28.63;;;13.65;;
66581;SDS011;53438;48.898;2.308;2023-04-29T07:50:38;31.40;;;14.23;;
66581;SDS011;53438;48.898;2.308;2023-04-29T07:53:03;33.57;;;15.37;;
66581;SDS011;53438;48.898;2.308;2023-04-29T07:55:29;34.40;;;15.23;;
66581;SDS011;53438;48.898;2.308;2023-04-29T07:57:55;31.48;;;14.73;;
66581;SDS011;53438;48.898;2.308;2023-04-29T08:00:21;33.75;;;15.93;;
66581;SDS011;53438;48.898;2.308;2023-04-29T08:02:50;31.37;;;15.80;;
66581;SDS011;53438;48.898;2.308;2023-04-29T08:05:19;30.27;;;13.85;;
66581;SDS011;53438;48.898;2.308;2023-04-29T08:07:46;31.60;;;15.02;;
66581;SDS011;53438;48.898;2.308;2023-04-29T08:10:12;31.98;;;15.02;;
66581;SDS011;53438;48.898;2.308;2023-04-29T08:12:38;32.20;;;14.70;;
66581;SDS011;53438;48.898;2.308;2023-04-29T08:15:04;37.37;;;15.60;;
66581;SDS011;53438;48.898;2.308;2023-04-29T08:17:29;30.80;;;14.60;;
66581;SDS011;53438;48.898;2.308;2023-04-29T08:19:55;31.90;;;14.55;;
66581;SDS011;53438;48.898;2.308;2023-04-29T08:22:20;32.00;;;14.30;;
66581;SDS011;53438;48.898;2.308;2023-04-29T08:24:46;38.17;;;17.07;;
66581;SDS011;53438;48.898;2.308;2023-04-29T08:27:12;37.88;;;17.42;;
66581;SDS011;53438;48.898;2.308;2023-04-29T08:29:39;33.00;;;16.75;;
66581;SDS011;53438;48.898;2.308;2023-04-29T08:32:04;38.53;;;16.90;;
66581;SDS011;53438;48.898;2.308;2023-04-29T08:34:30;36.30;;;16.83;;
66581;SDS011;53438;48.898;2.308;2023-04-29T08:36:56;36.80;;;16.77;;
66581;SDS011;53438;48.898;2.308;2023-04-29T08:39:21;34.20;;;16.73;;
66581;SDS011;53438;48.898;2.308;2023-04-29T08:41:47;34.27;;;16.50;;
66581;SDS011;53438;48.898;2.308;2023-04-29T08:44:15;36.63;;;17.15;;
66581;SDS011;53438;48.898;2.308;2023-04-29T08:46:42;31.80;;;16.38;;
66581;SDS011;53438;48.898;2.308;2023-04-29T08:49:08;37.70;;;16.73;;
66581;SDS011;53438;48.898;2.308;2023-04-29T08:51:34;38.22;;;17.70;;
66581;SDS011;53438;48.898;2.308;2023-04-29T08:53:59;36.17;;;17.80;;
66581;SDS011;53438;48.898;2.308;2023-04-29T08:56:25;36.10;;;17.30;;
66581;SDS011;53438;48.898;2.308;2023-04-29T08:58:51;35.97;;;17.25;;
66581;SDS011;53438;48.898;2.308;2023-04-29T09:01:22;33.70;;;16.55;;
66581;SDS011;53438;48.898;2.308;2023-04-29T09:06:35;30.67;;;16.37;;
66581;SDS011;53438;48.898;2.308;2023-04-29T09:09:01;34.17;;;16.08;;
66581;SDS011;53438;48.898;2.308;2023-04-29T09:11:27;36.50;;;17.80;;
66581;SDS011;53438;48.898;2.308;2023-04-29T09:13:58;37.38;;;17.35;;
66581;SDS011;53438;48.898;2.308;2023-04-29T09:16:25;33.05;;;16.75;;
66581;SDS011;53438;48.898;2.308;2023-04-29T09:18:51;38.97;;;18.08;;
66581;SDS011;53438;48.898;2.308;2023-04-29T09:21:25;34.58;;;17.70;;
66581;SDS011;53438;48.898;2.308;2023-04-29T09:23:55;32.70;;;17.57;;
66581;SDS011;53438;48.898;2.308;2023-04-29T09:26:22;32.47;;;16.13;;
66581;SDS011;53438;48.898;2.308;2023-04-29T09:29:24;35.92;;;18.13;;
66581;SDS011;53438;48.898;2.308;2023-04-29T09:31:42;39.88;;;18.45;;
66581;SDS011;53438;48.898;2.308;2023-04-29T09:34:09;42.78;;;19.52;;
66581;SDS011;53438;48.898;2.308;2023-04-29T09:39:07;35.88;;;18.05;;
66581;SDS011;53438;48.898;2.308;2023-04-29T09:44:16;37.88;;;18.55;;
66581;SDS011;53438;48.898;2.308;2023-04-29T09:46:43;39.38;;;17.92;;
66581;SDS011;53438;48.898;2.308;2023-04-29T09:49:37;37.20;;;17.92;;
66581;SDS011;53438;48.898;2.308;2023-04-29T09:54:32;40.30;;;17.97;;
66581;SDS011;53438;48.898;2.308;2023-04-29T09:57:00;33.60;;;17.95;;
66581;SDS011;53438;48.898;2.308;2023-04-29T09:59:26;37.22;;;19.13;;
66581;SDS011;53438;48.898;2.308;2023-04-29T10:01:55;39.22;;;19.90;;
66581;SDS011;53438;48.898;2.308;2023-04-29T10:04:22;38.22;;;17.55;;
66581;SDS011;53438;48.898;2.308;2023-04-29T10:06:50;36.53;;;18.50;;
66581;SDS011;53438;48.898;2.308;2023-04-29T10:09:20;38.75;;;19.42;;
66581;SDS011;53438;48.898;2.308;2023-04-29T10:11:48;40.05;;;19.98;;
66581;SDS011;53438;48.898;2.308;2023-04-29T10:14:16;34.80;;;17.87;;
66581;SDS011;53438;48.898;2.308;2023-04-29T10:16:49;37.35;;;18.55;;
66581;SDS011;53438;48.898;2.308;2023-04-29T10:19:25;34.65;;;17.50;;
66581;SDS011;53438;48.898;2.308;2023-04-29T10:22:11;30.65;;;16.67;;
66581;SDS011;53438;48.898;2.308;2023-04-29T10:24:41;34.28;;;16.70;;
66581;SDS011;53438;48.898;2.308;2023-04-29T10:27:07;33.73;;;16.77;;
66581;SDS011;53438;48.898;2.308;2023-04-29T10:29:36;33.58;;;16.38;;
66581;SDS011;53438;48.898;2.308;2023-04-29T10:32:03;32.25;;;15.48;;
66581;SDS011;53438;48.898;2.308;2023-04-29T10:34:31;28.67;;;15.35;;
66581;SDS011;53438;48.898;2.308;2023-04-29T10:36:57;31.50;;;16.02;;
66581;SDS011;53438;48.898;2.308;2023-04-29T10:39:29;30.40;;;15.67;;
66581;SDS011;53438;48.898;2.308;2023-04-29T10:42:13;28.88;;;15.43;;
66581;SDS011;53438;48.898;2.308;2023-04-29T10:50:33;30.13;;;15.40;;
66581;SDS011;53438;48.898;2.308;2023-04-29T10:53:11;24.75;;;13.07;;
66581;SDS011;53438;48.898;2.308;2023-04-29T10:55:38;27.50;;;14.50;;
66581;SDS011;53438;48.898;2.308;2023-04-29T10:58:04;27.15;;;14.27;;
66581;SDS011;53438;48.898;2.308;2023-04-29T11:00:52;28.85;;;16.17;;
66581;SDS011;53438;48.898;2.308;2023-04-29T11:03:43;25.50;;;14.07;;
66581;SDS011;53438;48.898;2.308;2023-04-29T11:06:18;24.40;;;13.50;;
66581;SDS011;53438;48.898;2.308;2023-04-29T11:08:44;26.80;;;13.70;;
66581;SDS011;53438;48.898;2.308;2023-04-29T11:11:09;23.73;;;12.40;;
66581;SDS011;53438;48.898;2.308;2023-04-29T11:13:38;24.35;;;13.50;;
66581;SDS011;53438;48.898;2.308;2023-04-29T11:18:36;22.52;;;12.50;;
66581;SDS011;53438;48.898;2.308;2023-04-29T11:21:21;21.83;;;11.73;;
66581;SDS011;53438;48.898;2.308;2023-04-29T11:23:49;22.67;;;12.05;;
66581;SDS011;53438;48.898;2.308;2023-04-29T11:26:18;22.93;;;12.60;;
66581;SDS011;53438;48.898;2.308;2023-04-29T11:28:44;20.67;;;12.75;;
66581;SDS011;53438;48.898;2.308;2023-04-29T11:31:09;23.35;;;13.70;;
66581;SDS011;53438;48.898;2.308;2023-04-29T11:33:35;23.17;;;12.60;;
66581;SDS011;53438;48.898;2.308;2023-04-29T11:36:01;22.65;;;13.50;;
66581;SDS011;53438;48.898;2.308;2023-04-29T11:38:27;23.57;;;12.50;;
66581;SDS011;53438;48.898;2.308;2023-04-29T11:40:54;22.73;;;13.30;;
66581;SDS011;53438;48.898;2.308;2023-04-29T11:43:21;21.05;;;12.20;;
66581;SDS011;53438;48.898;2.308;2023-04-29T11:45:47;23.63;;;12.82;;
66581;SDS011;53438;48.898;2.308;2023-04-29T11:48:19;21.43;;;12.03;;
66581;SDS011;53438;48.898;2.308;2023-04-29T11:50:47;24.77;;;12.70;;
66581;SDS011;53438;48.898;2.308;2023-04-29T11:53:18;23.40;;;12.52;;
66581;SDS011;53438;48.898;2.308;2023-04-29T11:55:44;24.98;;;13.88;;
66581;SDS011;53438;48.898;2.308;2023-04-29T11:58:10;21.38;;;12.70;;
66581;SDS011;53438;48.898;2.308;2023-04-29T12:00:36;22.67;;;12.15;;
66581;SDS011;53438;48.898;2.308;2023-04-29T12:03:06;21.30;;;11.63;;
66581;SDS011;53438;48.898;2.308;2023-04-29T12:05:38;19.33;;;11.40;;
66581;SDS011;53438;48.898;2.308;2023-04-29T12:08:05;18.47;;;11.60;;
66581;SDS011;53438;48.898;2.308;2023-04-29T12:10:31;21.67;;;12.07;;
66581;SDS011;53438;48.898;2.308;2023-04-29T12:13:00;23.27;;;12.20;;
66581;SDS011;53438;48.898;2.308;2023-04-29T12:15:25;18.27;;;10.07;;
66581;SDS011;53438;48.898;2.308;2023-04-29T12:17:54;22.13;;;11.18;;
66581;SDS011;53438;48.898;2.308;2023-04-29T12:20:20;24.05;;;11.13;;
66581;SDS011;53438;48.898;2.308;2023-04-29T12:22:45;19.20;;;10.97;;
66581;SDS011;53438;48.898;2.308;2023-04-29T12:25:14;21.33;;;11.77;;
66581;SDS011;53438;48.898;2.308;2023-04-29T12:27:40;22.15;;;12.57;;
66581;SDS011;53438;48.898;2.308;2023-04-29T12:30:07;21.80;;;12.43;;
66581;SDS011;53438;48.898;2.308;2023-04-29T12:32:33;22.10;;;12.80;;
66581;SDS011;53438;48.898;2.308;2023-04-29T12:34:58;24.75;;;12.77;;
66581;SDS011;53438;48.898;2.308;2023-04-29T12:37:24;22.03;;;11.23;;
66581;SDS011;53438;48.898;2.308;2023-04-29T12:39:50;19.75;;;11.85;;
66581;SDS011;53438;48.898;2.308;2023-04-29T12:42:18;20.33;;;11.90;;
66581;SDS011;53438;48.898;2.308;2023-04-29T12:44:44;24.80;;;12.97;;
66581;SDS011;53438;48.898;2.308;2023-04-29T12:47:11;19.92;;;12.00;;
66581;SDS011;53438;48.898;2.308;2023-04-29T12:49:39;24.17;;;12.40;;
66581;SDS011;53438;48.898;2.308;2023-04-29T12:52:07;20.85;;;12.52;;
66581;SDS011;53438;48.898;2.308;2023-04-29T12:54:34;25.33;;;13.63;;
66581;SDS011;53438;48.898;2.308;2023-04-29T12:57:00;22.00;;;11.87;;
66581;SDS011;53438;48.898;2.308;2023-04-29T12:59:26;22.17;;;13.05;;
66581;SDS011;53438;48.898;2.308;2023-04-29T13:01:52;24.65;;;11.63;;
66581;SDS011;53438;48.898;2.308;2023-04-29T13:04:18;24.05;;;11.95;;
66581;SDS011;53438;48.898;2.308;2023-04-29T13:06:44;24.03;;;13.20;;
66581;SDS011;53438;48.898;2.308;2023-04-29T13:09:10;23.88;;;12.43;;
66581;SDS011;53438;48.898;2.308;2023-04-29T13:11:38;21.40;;;12.77;;
66581;SDS011;53438;48.898;2.308;2023-04-29T13:14:04;21.17;;;10.68;;
66581;SDS011;53438;48.898;2.308;2023-04-29T13:16:34;18.95;;;10.60;;
66581;SDS011;53438;48.898;2.308;2023-04-29T13:19:02;21.13;;;11.65;;
66581;SDS011;53438;48.898;2.308;2023-04-29T13:21:27;19.50;;;11.17;;
66581;SDS011;53438;48.898;2.308;2023-04-29T13:23:53;21.88;;;11.65;;
66581;SDS011;53438;48.898;2.308;2023-04-29T13:26:19;19.83;;;11.43;;
66581;SDS011;53438;48.898;2.308;2023-04-29T13:28:44;22.13;;;11.20;;
66581;SDS011;53438;48.898;2.308;2023-04-29T13:31:10;19.53;;;10.03;;
66581;SDS011;53438;48.898;2.308;2023-04-29T13:33:36;17.60;;;10.60;;
66581;SDS011;53438;48.898;2.308;2023-04-29T13:36:01;20.47;;;9.80;;
66581;SDS011;53438;48.898;2.308;2023-04-29T13:38:26;17.40;;;10.03;;
66581;SDS011;53438;48.898;2.308;2023-04-29T13:40:52;19.43;;;11.67;;
66581;SDS011;53438;48.898;2.308;2023-04-29T13:43:17;18.00;;;8.87;;
66581;SDS011;53438;48.898;2.308;2023-04-29T13:45:43;18.95;;;10.70;;
66581;SDS011;53438;48.898;2.308;2023-04-29T13:48:08;18.30;;;9.93;;
66581;SDS011;53438;48.898;2.308;2023-04-29T13:50:33;21.87;;;9.80;;
66581;SDS011;53438;48.898;2.308;2023-04-29T13:52:59;19.20;;;10.90;;
66581;SDS011;53438;48.898;2.308;2023-04-29T13:55:24;22.40;;;9.67;;
66581;SDS011;53438;48.898;2.308;2023-04-29T13:57:49;18.27;;;9.87;;
66581;SDS011;53438;48.898;2.308;2023-04-29T14:00:16;16.08;;;10.00;;
66581;SDS011;53438;48.898;2.308;2023-04-29T14:02:41;17.05;;;9.50;;
66581;SDS011;53438;48.898;2.308;2023-04-29T14:05:07;17.77;;;9.10;;
66581;SDS011;53438;48.898;2.308;2023-04-29T14:07:34;14.73;;;8.60;;
66581;SDS011;53438;48.898;2.308;2023-04-29T14:09:59;17.70;;;9.17;;
66581;SDS011;53438;48.898;2.308;2023-04-29T14:12:25;16.40;;;9.03;;
66581;SDS011;53438;48.898;2.308;2023-04-29T14:14:50;15.47;;;9.00;;
66581;SDS011;53438;48.898;2.308;2023-04-29T14:17:15;17.63;;;9.25;;
66581;SDS011;53438;48.898;2.308;2023-04-29T14:19:41;16.50;;;9.30;;
66581;SDS011;53438;48.898;2.308;2023-04-29T14:22:06;16.80;;;8.93;;
66581;SDS011;53438;48.898;2.308;2023-04-29T14:24:32;13.53;;;8.37;;
66581;SDS011;53438;48.898;2.308;2023-04-29T14:26:57;19.43;;;7.80;;
66581;SDS011;53438;48.898;2.308;2023-04-29T14:29:23;16.73;;;8.80;;
66581;SDS011;53438;48.898;2.308;2023-04-29T14:31:48;13.70;;;8.20;;
66581;SDS011;53438;48.898;2.308;2023-04-29T14:34:13;18.00;;;8.80;;
66581;SDS011;53438;48.898;2.308;2023-04-29T14:36:39;16.37;;;8.23;;
66581;SDS011;53438;48.898;2.308;2023-04-29T14:39:05;17.58;;;8.80;;
66581;SDS011;53438;48.898;2.308;2023-04-29T14:41:32;18.77;;;8.95;;
66581;SDS011;53438;48.898;2.308;2023-04-29T14:43:58;16.90;;;7.78;;
66581;SDS011;53438;48.898;2.308;2023-04-29T14:46:24;15.83;;;8.50;;
66581;SDS011;53438;48.898;2.308;2023-04-29T14:48:49;13.77;;;7.77;;
66581;SDS011;53438;48.898;2.308;2023-04-29T14:51:14;13.00;;;7.97;;
66581;SDS011;53438;48.898;2.308;2023-04-29T14:53:40;11.47;;;7.90;;
66581;SDS011;53438;48.898;2.308;2023-04-29T14:56:05;12.33;;;7.93;;
66581;SDS011;53438;48.898;2.308;2023-04-29T14:58:31;17.23;;;8.10;;
66581;SDS011;53438;48.898;2.308;2023-04-29T15:00:57;13.03;;;8.20;;
66581;SDS011;53438;48.898;2.308;2023-04-29T15:03:22;14.40;;;7.43;;
66581;SDS011;53438;48.898;2.308;2023-04-29T15:05:47;14.15;;;7.60;;
66581;SDS011;53438;48.898;2.308;2023-04-29T15:08:14;14.67;;;7.80;;
66581;SDS011;53438;48.898;2.308;2023-04-29T15:10:41;13.38;;;7.05;;
66581;SDS011;53438;48.898;2.308;2023-04-29T15:13:06;14.80;;;7.10;;
66581;SDS011;53438;48.898;2.308;2023-04-29T15:15:31;12.90;;;7.23;;
66581;SDS011;53438;48.898;2.308;2023-04-29T15:17:57;11.90;;;6.70;;
66581;SDS011;53438;48.898;2.308;2023-04-29T15:20:22;12.98;;;6.65;;
66581;SDS011;53438;48.898;2.308;2023-04-29T15:22:47;11.13;;;7.40;;
66581;SDS011;53438;48.898;2.308;2023-04-29T15:25:13;16.63;;;7.47;;
66581;SDS011;53438;48.898;2.308;2023-04-29T15:27:38;12.87;;;7.43;;
66581;SDS011;53438;48.898;2.308;2023-04-29T15:30:04;15.00;;;7.87;;
66581;SDS011;53438;48.898;2.308;2023-04-29T15:32:30;11.32;;;7.35;;
66581;SDS011;53438;48.898;2.308;2023-04-29T15:34:57;14.00;;;7.53;;
66581;SDS011;53438;48.898;2.308;2023-04-29T15:37:23;11.23;;;6.40;;
66581;SDS011;53438;48.898;2.308;2023-04-29T15:39:49;12.95;;;7.40;;
66581;SDS011;53438;48.898;2.308;2023-04-29T15:42:15;14.10;;;7.90;;
66581;SDS011;53438;48.898;2.308;2023-04-29T15:44:40;15.65;;;7.00;;
66581;SDS011;53438;48.898;2.308;2023-04-29T15:47:05;16.85;;;6.97;;
66581;SDS011;53438;48.898;2.308;2023-04-29T15:49:31;12.77;;;7.60;;
66581;SDS011;53438;48.898;2.308;2023-04-29T15:51:56;12.93;;;7.80;;
66581;SDS011;53438;48.898;2.308;2023-04-29T15:54:22;11.00;;;7.27;;
66581;SDS011;53438;48.898;2.308;2023-04-29T15:56:48;12.53;;;8.10;;
66581;SDS011;53438;48.898;2.308;2023-04-29T15:59:13;14.55;;;8.25;;
66581;SDS011;53438;48.898;2.308;2023-04-29T16:01:39;13.35;;;8.57;;
66581;SDS011;53438;48.898;2.308;2023-04-29T16:04:05;14.70;;;8.90;;
66581;SDS011;53438;48.898;2.308;2023-04-29T16:06:30;15.27;;;8.37;;
66581;SDS011;53438;48.898;2.308;2023-04-29T16:08:56;14.52;;;8.27;;
66581;SDS011;53438;48.898;2.308;2023-04-29T16:11:22;13.87;;;8.27;;
66581;SDS011;53438;48.898;2.308;2023-04-29T16:13:47;16.80;;;11.00;;
66581;SDS011;53438;48.898;2.308;2023-04-29T16:16:13;14.63;;;8.95;;
66581;SDS011;53438;48.898;2.308;2023-04-29T16:18:39;16.60;;;8.40;;
66581;SDS011;53438;48.898;2.308;2023-04-29T16:21:06;11.40;;;7.27;;
66581;SDS011;53438;48.898;2.308;2023-04-29T16:23:31;16.52;;;9.40;;
66581;SDS011;53438;48.898;2.308;2023-04-29T16:25:56;13.87;;;7.67;;
66581;SDS011;53438;48.898;2.308;2023-04-29T16:28:22;20.60;;;11.83;;
66581;SDS011;53438;48.898;2.308;2023-04-29T16:30:48;24.00;;;12.55;;
66581;SDS011;53438;48.898;2.308;2023-04-29T16:33:13;25.50;;;11.55;;
66581;SDS011;53438;48.898;2.308;2023-04-29T16:35:40;18.97;;;10.43;;
66581;SDS011;53438;48.898;2.308;2023-04-29T16:38:05;17.13;;;9.52;;
66581;SDS011;53438;48.898;2.308;2023-04-29T16:40:31;15.90;;;10.43;;
66581;SDS011;53438;48.898;2.308;2023-04-29T16:42:56;16.03;;;9.93;;
66581;SDS011;53438;48.898;2.308;2023-04-29T16:45:23;15.57;;;8.73;;
66581;SDS011;53438;48.898;2.308;2023-04-29T16:47:50;15.73;;;9.60;;
66581;SDS011;53438;48.898;2.308;2023-04-29T16:50:15;15.50;;;9.18;;
66581;SDS011;53438;48.898;2.308;2023-04-29T16:52:42;14.23;;;8.98;;
66581;SDS011;53438;48.898;2.308;2023-04-29T16:55:07;15.13;;;9.07;;
66581;SDS011;53438;48.898;2.308;2023-04-29T16:57:33;18.23;;;8.52;;
66581;SDS011;53438;48.898;2.308;2023-04-29T16:59:59;14.52;;;9.52;;
66581;SDS011;53438;48.898;2.308;2023-04-29T17:02:25;18.77;;;9.07;;
66581;SDS011;53438;48.898;2.308;2023-04-29T17:04:50;15.57;;;8.83;;
66581;SDS011;53438;48.898;2.308;2023-04-29T17:07:16;18.23;;;9.30;;
66581;SDS011;53438;48.898;2.308;2023-04-29T17:09:43;16.73;;;9.82;;
66581;SDS011;53438;48.898;2.308;2023-04-29T17:12:11;15.07;;;9.65;;
66581;SDS011;53438;48.898;2.308;2023-04-29T17:14:37;16.05;;;9.18;;
66581;SDS011;53438;48.898;2.308;2023-04-29T17:17:02;16.20;;;8.90;;
66581;SDS011;53438;48.898;2.308;2023-04-29T17:19:28;18.23;;;9.27;;
66581;SDS011;53438;48.898;2.308;2023-04-29T17:21:53;17.40;;;9.00;;
66581;SDS011;53438;48.898;2.308;2023-04-29T17:24:20;17.17;;;9.30;;
66581;SDS011;53438;48.898;2.308;2023-04-29T17:26:46;20.02;;;9.43;;
66581;SDS011;53438;48.898;2.308;2023-04-29T17:29:11;15.90;;;8.93;;
66581;SDS011;53438;48.898;2.308;2023-04-29T17:31:36;15.83;;;9.47;;
66581;SDS011;53438;48.898;2.308;2023-04-29T17:34:18;15.45;;;9.27;;
66581;SDS011;53438;48.898;2.308;2023-04-29T17:36:47;18.93;;;9.97;;
66581;SDS011;53438;48.898;2.308;2023-04-29T17:39:17;13.98;;;9.43;;
66581;SDS011;53438;48.898;2.308;2023-04-29T17:41:42;15.37;;;9.40;;
66581;SDS011;53438;48.898;2.308;2023-04-29T17:44:08;16.67;;;9.25;;